Tuesday, September 2, 2014, 2:51 PM EDT

KFYJ, West Point, Middle Peninsula Regional Airport

Location: Shacklefords, VA, United States Lat: 37.521
Local Time: 2:51 PM EDT (18:51 GMT) Lon: -76.764
Time Zone: US/Eastern Elev: 22 ft

Show me the last for .
Show Decoded

2014-09-02 05:35 METAR KFYJ 020935Z AUTO 00000KT 10SM CLR 25/22 A3000 RMK AO2 T02520216 =
2014-09-02 05:15 METAR KFYJ 020915Z AUTO 21003KT 10SM SCT085 25/22 A2999 RMK AO2 T02530216 =
2014-09-02 04:55 METAR KFYJ 020855Z AUTO 00000KT 10SM SCT085 26/22 A2999 RMK AO2 T02550215 =
2014-09-02 04:35 METAR KFYJ 020835Z AUTO 00000KT 10SM CLR 26/22 A2999 RMK AO2 T02550215 =
2014-09-02 04:15 METAR KFYJ 020815Z AUTO 00000KT 10SM CLR 25/22 A2999 RMK AO2 T02520216 =
2014-09-02 03:55 METAR KFYJ 020755Z AUTO 00000KT 10SM CLR 26/22 A3000 RMK AO2 T02550215 =
2014-09-02 03:35 METAR KFYJ 020735Z AUTO 00000KT 10SM CLR 26/21 A3001 RMK AO2 T02620212 =
2014-09-02 03:15 METAR KFYJ 020715Z AUTO 00000KT 10SM CLR 26/22 A3001 RMK AO2 T02580215 =
2014-09-02 02:35 METAR KFYJ 020635Z AUTO 00000KT 10SM CLR 26/22 A3001 RMK AO2 T02600215 =
2014-09-02 02:15 METAR KFYJ 020615Z AUTO 00000KT 10SM CLR 25/21 A3001 RMK AO2 T02500214 =
2014-09-02 01:55 METAR KFYJ 020555Z AUTO 00000KT 10SM CLR 25/22 A3001 RMK AO2 T02520217 10305
                 20251 403520251 =
2014-09-02 01:35 METAR KFYJ 020535Z AUTO 00000KT 10SM CLR 26/22 A3001 RMK AO2 T02580215 =
2014-09-02 01:15 METAR KFYJ 020515Z AUTO 00000KT 10SM CLR 26/22 A3002 RMK AO2 T02610217 =
2014-09-02 00:55 METAR KFYJ 020455Z AUTO 00000KT 10SM CLR 26/22 A3001 RMK AO2 T02550218 =
2014-09-02 00:35 METAR KFYJ 020435Z AUTO 00000KT 10SM CLR 28/21 A3001 RMK AO2 T02750211 =
2014-09-02 00:15 METAR KFYJ 020415Z AUTO 00000KT 10SM CLR 28/21 A3002 RMK AO2 T02760212 =
2014-09-01 23:55 METAR KFYJ 020355Z AUTO 00000KT 10SM CLR 28/21 A3001 RMK AO2 T02760212 =
2014-09-01 23:35 METAR KFYJ 020335Z AUTO 23003KT 10SM CLR 28/21 A3002 RMK AO2 T02810212 =
2014-09-01 23:15 METAR KFYJ 020315Z AUTO 22005KT 10SM CLR 28/21 A3001 RMK AO2 T02830211 =
2014-09-01 22:55 METAR KFYJ 020255Z AUTO 23004KT 10SM CLR 29/21 A3001 RMK AO2 T02850211 =
2014-09-01 22:35 METAR KFYJ 020235Z AUTO 23004KT 10SM CLR 29/21 A3001 RMK AO2 T02870211 =
2014-09-01 22:15 METAR KFYJ 020215Z AUTO 23005KT 10SM CLR 29/21 A3001 RMK AO2 T02880212 =
2014-09-01 21:55 METAR KFYJ 020155Z AUTO 22004KT 10SM CLR 29/21 A3000 RMK AO2 T02900213 =
2014-09-01 21:35 METAR KFYJ 020135Z AUTO 21003KT 10SM CLR 29/21 A2999 RMK AO2 T02910212 =
2014-09-01 21:15 METAR KFYJ 020115Z AUTO 22003KT 10SM CLR 30/21 A3000 RMK AO2 T02950213 =
2014-09-01 20:55 METAR KFYJ 020055Z AUTO 20003KT 10SM CLR 30/21 A2999 RMK AO2 T02970212 =
2014-09-01 20:35 METAR KFYJ 020035Z AUTO 21004KT 10SM CLR 30/22 A2999 RMK AO2 T03000215 =
2014-09-01 20:15 METAR KFYJ 020015Z AUTO 22003KT 10SM SCT075 30/22 A2999 RMK AO2 T03000215 =
2014-09-01 19:55 METAR KFYJ 012355Z AUTO 22004KT 10SM SCT075 SCT090 31/22 A2999 RMK AO2 T03050215
                 10352 20305 =
2014-09-01 19:35 METAR KFYJ 012335Z AUTO 21003KT 10SM SCT090 31/22 A2998 RMK AO2 T03100216 =
2014-09-01 19:15 METAR KFYJ 012315Z AUTO 00000KT 10SM SCT080 32/22 A2998 RMK AO2 T03160216 =
2014-09-01 18:35 METAR KFYJ 012235Z AUTO 21004KT 10SM SCT075 SCT090 32/21 A2998 RMK AO2 T03230206
                 =
2014-09-01 18:15 METAR KFYJ 012215Z AUTO 21006KT 10SM SCT090 33/20 A2998 RMK AO2 T03310204 =
2014-09-01 17:55 METAR KFYJ 012155Z AUTO 22008KT 10SM BKN090 34/20 A2998 RMK AO2 T03350200 =
2014-09-01 17:35 METAR KFYJ 012135Z AUTO 23008KT 10SM SCT080 BKN090 34/20 A2998 RMK AO2 T03400204
                 =
2014-09-01 17:15 METAR KFYJ 012115Z AUTO 24007KT 10SM BKN080 34/21 A2997 RMK AO2 T03410207 =
2014-09-01 16:55 METAR KFYJ 012055Z AUTO 23006KT 10SM CLR 34/20 A2997 RMK AO2 T03420200 =
2014-09-01 16:35 METAR KFYJ 012035Z AUTO 23008KT 10SM SCT055 SCT100 34/20 A2997 RMK AO2 T03400198
                 =
2014-09-01 16:15 METAR KFYJ 012015Z AUTO 23006KT 10SM SCT055 SCT100 35/20 A2998 RMK AO2 T03460199
                 =
2014-09-01 15:55 METAR KFYJ 011955Z AUTO 24009KT 10SM SCT090 35/20 A2998 RMK AO2 T03520201 =
2014-09-01 15:35 METAR KFYJ 011935Z AUTO 24009KT 10SM CLR 35/20 A2998 RMK AO2 T03500204 =
2014-09-01 15:15 METAR KFYJ 011915Z AUTO 24006KT 10SM CLR 35/21 A2998 RMK AO2 T03480207 =
2014-09-01 14:55 METAR KFYJ 011855Z AUTO 25006KT 10SM SCT042 35/21 A2999 RMK AO2 T03450208 =

Support USWX by starting your Amazon purchase here.